sensor_id;sensor_type;location;lat;lon;timestamp;temperature;humidity
14769;DHT22;7476;49.404;11.152;2023-05-20T00:01:29;13.70;99.90
14769;DHT22;7476;49.404;11.152;2023-05-20T00:03:56;13.60;99.90
14769;DHT22;7476;49.404;11.152;2023-05-20T00:06:23;13.70;99.90
14769;DHT22;7476;49.404;11.152;2023-05-20T00:08:49;13.80;99.90
14769;DHT22;7476;49.404;11.152;2023-05-20T00:11:17;13.70;99.90
14769;DHT22;7476;49.404;11.152;2023-05-20T00:13:44;13.70;99.90
14769;DHT22;7476;49.404;11.152;2023-05-20T00:16:11;13.80;99.90
14769;DHT22;7476;49.404;11.152;2023-05-20T00:18:38;13.90;99.90
14769;DHT22;7476;49.404;11.152;2023-05-20T00:21:04;13.80;99.90
14769;DHT22;7476;49.404;11.152;2023-05-20T00:23:31;13.80;99.90
14769;DHT22;7476;49.404;11.152;2023-05-20T00:25:58;13.80;99.90
14769;DHT22;7476;49.404;11.152;2023-05-20T00:28:26;13.90;99.90
14769;DHT22;7476;49.404;11.152;2023-05-20T00:30:53;13.90;99.90
14769;DHT22;7476;49.404;11.152;2023-05-20T00:33:20;13.80;99.90
14769;DHT22;7476;49.404;11.152;2023-05-20T00:35:46;13.70;99.90
14769;DHT22;7476;49.404;11.152;2023-05-20T00:38:13;13.80;99.90
14769;DHT22;7476;49.404;11.152;2023-05-20T00:40:40;13.70;99.90
14769;DHT22;7476;49.404;11.152;2023-05-20T00:43:06;13.80;99.90
14769;DHT22;7476;49.404;11.152;2023-05-20T00:45:35;13.80;99.90
14769;DHT22;7476;49.404;11.152;2023-05-20T00:48:02;13.80;99.90
14769;DHT22;7476;49.404;11.152;2023-05-20T00:50:29;13.90;99.90
14769;DHT22;7476;49.404;11.152;2023-05-20T00:52:56;13.90;99.90
14769;DHT22;7476;49.404;11.152;2023-05-20T00:55:23;14.00;99.90
14769;DHT22;7476;49.404;11.152;2023-05-20T00:57:51;13.90;99.90
14769;DHT22;7476;49.404;11.152;2023-05-20T01:00:18;13.90;99.90
14769;DHT22;7476;49.404;11.152;2023-05-20T01:02:46;13.90;99.90
14769;DHT22;7476;49.404;11.152;2023-05-20T01:05:13;13.90;99.90
14769;DHT22;7476;49.404;11.152;2023-05-20T01:07:40;13.90;99.90
14769;DHT22;7476;49.404;11.152;2023-05-20T01:10:07;13.90;99.90
14769;DHT22;7476;49.404;11.152;2023-05-20T01:12:36;13.90;99.90
14769;DHT22;7476;49.404;11.152;2023-05-20T01:15:06;13.90;99.90
14769;DHT22;7476;49.404;11.152;2023-05-20T01:17:37;13.90;99.90
14769;DHT22;7476;49.404;11.152;2023-05-20T01:20:07;13.90;99.90
14769;DHT22;7476;49.404;11.152;2023-05-20T01:22:37;13.80;99.90
14769;DHT22;7476;49.404;11.152;2023-05-20T01:25:04;13.80;99.90
14769;DHT22;7476;49.404;11.152;2023-05-20T01:27:31;13.80;99.90
14769;DHT22;7476;49.404;11.152;2023-05-20T01:29:58;13.80;99.90
14769;DHT22;7476;49.404;11.152;2023-05-20T01:32:35;13.80;99.90
14769;DHT22;7476;49.404;11.152;2023-05-20T01:35:04;13.80;99.90
14769;DHT22;7476;49.404;11.152;2023-05-20T01:37:31;13.80;99.90
14769;DHT22;7476;49.404;11.152;2023-05-20T01:40:02;13.80;99.90
14769;DHT22;7476;49.404;11.152;2023-05-20T01:42:30;13.70;99.90
14769;DHT22;7476;49.404;11.152;2023-05-20T01:44:58;13.80;99.90
14769;DHT22;7476;49.404;11.152;2023-05-20T01:47:25;13.80;99.90
14769;DHT22;7476;49.404;11.152;2023-05-20T01:49:51;13.70;99.90
14769;DHT22;7476;49.404;11.152;2023-05-20T01:52:18;13.70;99.90
14769;DHT22;7476;49.404;11.152;2023-05-20T01:54:45;13.60;99.90
14769;DHT22;7476;49.404;11.152;2023-05-20T01:57:17;13.60;99.90
14769;DHT22;7476;49.404;11.152;2023-05-20T01:59:43;13.50;99.90
14769;DHT22;7476;49.404;11.152;2023-05-20T02:02:10;13.40;99.90
14769;DHT22;7476;49.404;11.152;2023-05-20T02:04:36;13.40;99.90
14769;DHT22;7476;49.404;11.152;2023-05-20T02:07:03;13.40;99.90
14769;DHT22;7476;49.404;11.152;2023-05-20T02:09:30;13.40;99.90
14769;DHT22;7476;49.404;11.152;2023-05-20T02:11:56;13.40;99.90
14769;DHT22;7476;49.404;11.152;2023-05-20T02:14:27;13.20;99.90
14769;DHT22;7476;49.404;11.152;2023-05-20T02:16:54;13.20;99.90
14769;DHT22;7476;49.404;11.152;2023-05-20T02:19:20;13.20;99.90
14769;DHT22;7476;49.404;11.152;2023-05-20T02:21:48;13.20;99.90
14769;DHT22;7476;49.404;11.152;2023-05-20T02:24:15;13.00;99.90
14769;DHT22;7476;49.404;11.152;2023-05-20T02:26:41;12.90;99.90
14769;DHT22;7476;49.404;11.152;2023-05-20T02:29:10;12.90;99.90
14769;DHT22;7476;49.404;11.152;2023-05-20T02:31:38;13.00;99.90
14769;DHT22;7476;49.404;11.152;2023-05-20T02:34:04;12.80;99.90
14769;DHT22;7476;49.404;11.152;2023-05-20T02:36:32;12.80;99.90
14769;DHT22;7476;49.404;11.152;2023-05-20T02:38:59;12.90;99.90
14769;DHT22;7476;49.404;11.152;2023-05-20T02:41:26;12.90;99.90
14769;DHT22;7476;49.404;11.152;2023-05-20T02:43:52;12.90;99.90
14769;DHT22;7476;49.404;11.152;2023-05-20T02:46:19;12.80;99.90
14769;DHT22;7476;49.404;11.152;2023-05-20T02:48:47;12.80;99.90
14769;DHT22;7476;49.404;11.152;2023-05-20T02:51:14;12.70;99.90
14769;DHT22;7476;49.404;11.152;2023-05-20T02:53:41;12.60;99.90
14769;DHT22;7476;49.404;11.152;2023-05-20T02:56:07;12.70;99.90
14769;DHT22;7476;49.404;11.152;2023-05-20T02:58:34;12.70;99.90
14769;DHT22;7476;49.404;11.152;2023-05-20T03:01:01;12.70;99.90
14769;DHT22;7476;49.404;11.152;2023-05-20T03:03:28;12.80;99.90
14769;DHT22;7476;49.404;11.152;2023-05-20T03:05:56;12.80;99.90
14769;DHT22;7476;49.404;11.152;2023-05-20T03:08:23;12.80;99.90
14769;DHT22;7476;49.404;11.152;2023-05-20T03:10:50;12.90;99.90
14769;DHT22;7476;49.404;11.152;2023-05-20T03:13:16;12.80;99.90
14769;DHT22;7476;49.404;11.152;2023-05-20T03:15:43;12.80;99.90
14769;DHT22;7476;49.404;11.152;2023-05-20T03:18:11;12.70;99.90
14769;DHT22;7476;49.404;11.152;2023-05-20T03:20:38;12.70;99.90
14769;DHT22;7476;49.404;11.152;2023-05-20T03:23:07;12.70;99.90
14769;DHT22;7476;49.404;11.152;2023-05-20T03:25:34;12.70;99.90
14769;DHT22;7476;49.404;11.152;2023-05-20T03:28:00;12.80;99.90
14769;DHT22;7476;49.404;11.152;2023-05-20T03:30:27;12.80;99.90
14769;DHT22;7476;49.404;11.152;2023-05-20T03:32:54;12.70;99.90
14769;DHT22;7476;49.404;11.152;2023-05-20T03:35:22;12.80;99.90
14769;DHT22;7476;49.404;11.152;2023-05-20T03:37:48;12.70;99.90
14769;DHT22;7476;49.404;11.152;2023-05-20T03:40:17;12.70;99.90
14769;DHT22;7476;49.404;11.152;2023-05-20T03:42:45;12.70;99.90
14769;DHT22;7476;49.404;11.152;2023-05-20T03:45:11;12.80;99.90
14769;DHT22;7476;49.404;11.152;2023-05-20T03:47:38;12.80;99.90
14769;DHT22;7476;49.404;11.152;2023-05-20T03:50:06;12.80;99.90
14769;DHT22;7476;49.404;11.152;2023-05-20T03:52:33;12.80;99.90
14769;DHT22;7476;49.404;11.152;2023-05-20T03:54:59;12.80;99.90
14769;DHT22;7476;49.404;11.152;2023-05-20T03:57:27;12.80;99.90
14769;DHT22;7476;49.404;11.152;2023-05-20T03:59:54;12.80;99.90
14769;DHT22;7476;49.404;11.152;2023-05-20T04:02:21;12.80;99.90
14769;DHT22;7476;49.404;11.152;2023-05-20T04:04:48;12.90;99.90
14769;DHT22;7476;49.404;11.152;2023-05-20T04:07:17;12.80;99.90
14769;DHT22;7476;49.404;11.152;2023-05-20T04:09:44;12.80;99.90
14769;DHT22;7476;49.404;11.152;2023-05-20T04:12:10;12.80;99.90
14769;DHT22;7476;49.404;11.152;2023-05-20T04:14:39;12.80;99.90
14769;DHT22;7476;49.404;11.152;2023-05-20T04:17:07;12.90;99.90
14769;DHT22;7476;49.404;11.152;2023-05-20T04:19:33;12.90;99.90
14769;DHT22;7476;49.404;11.152;2023-05-20T04:22:00;12.80;99.90
14769;DHT22;7476;49.404;11.152;2023-05-20T04:24:27;12.80;99.90
14769;DHT22;7476;49.404;11.152;2023-05-20T04:26:53;12.80;99.90
14769;DHT22;7476;49.404;11.152;2023-05-20T04:29:20;12.90;99.90
14769;DHT22;7476;49.404;11.152;2023-05-20T04:31:48;12.90;99.90
14769;DHT22;7476;49.404;11.152;2023-05-20T04:34:15;12.90;99.90
14769;DHT22;7476;49.404;11.152;2023-05-20T04:36:44;13.00;99.90
14769;DHT22;7476;49.404;11.152;2023-05-20T04:39:11;13.20;99.90
14769;DHT22;7476;49.404;11.152;2023-05-20T04:41:38;13.50;99.90
14769;DHT22;7476;49.404;11.152;2023-05-20T04:44:04;13.90;99.90
14769;DHT22;7476;49.404;11.152;2023-05-20T04:46:31;14.20;99.90
14769;DHT22;7476;49.404;11.152;2023-05-20T04:48:59;14.30;99.90
14769;DHT22;7476;49.404;11.152;2023-05-20T04:51:26;14.10;99.90
14769;DHT22;7476;49.404;11.152;2023-05-20T04:53:53;14.20;99.90
14769;DHT22;7476;49.404;11.152;2023-05-20T04:56:20;14.30;99.90
14769;DHT22;7476;49.404;11.152;2023-05-20T04:58:47;14.60;99.90
14769;DHT22;7476;49.404;11.152;2023-05-20T05:01:13;14.60;99.90
14769;DHT22;7476;49.404;11.152;2023-05-20T05:03:40;14.60;99.90
14769;DHT22;7476;49.404;11.152;2023-05-20T05:06:08;14.40;99.90
14769;DHT22;7476;49.404;11.152;2023-05-20T05:08:35;14.50;99.90
14769;DHT22;7476;49.404;11.152;2023-05-20T05:11:04;14.50;99.90
14769;DHT22;7476;49.404;11.152;2023-05-20T05:13:30;15.10;99.90
14769;DHT22;7476;49.404;11.152;2023-05-20T05:15:58;15.40;99.90
14769;DHT22;7476;49.404;11.152;2023-05-20T05:18:25;15.80;99.90
14769;DHT22;7476;49.404;11.152;2023-05-20T05:20:58;16.30;99.90
14769;DHT22;7476;49.404;11.152;2023-05-20T05:23:26;16.20;99.90
14769;DHT22;7476;49.404;11.152;2023-05-20T05:25:53;16.20;99.90
14769;DHT22;7476;49.404;11.152;2023-05-20T05:28:19;16.00;99.90
14769;DHT22;7476;49.404;11.152;2023-05-20T05:30:46;16.60;99.90
14769;DHT22;7476;49.404;11.152;2023-05-20T05:33:13;16.80;99.90
14769;DHT22;7476;49.404;11.152;2023-05-20T05:35:40;17.30;99.90
14769;DHT22;7476;49.404;11.152;2023-05-20T05:38:06;17.20;99.90
14769;DHT22;7476;49.404;11.152;2023-05-20T05:40:35;17.20;99.90
14769;DHT22;7476;49.404;11.152;2023-05-20T05:43:01;16.80;99.90
14769;DHT22;7476;49.404;11.152;2023-05-20T05:45:28;16.60;99.90
14769;DHT22;7476;49.404;11.152;2023-05-20T05:47:55;16.90;99.90
14769;DHT22;7476;49.404;11.152;2023-05-20T05:50:21;16.40;99.90
14769;DHT22;7476;49.404;11.152;2023-05-20T05:52:48;16.70;99.90
14769;DHT22;7476;49.404;11.152;2023-05-20T05:55:15;17.20;99.90
14769;DHT22;7476;49.404;11.152;2023-05-20T05:57:43;16.80;99.90
14769;DHT22;7476;49.404;11.152;2023-05-20T06:00:11;16.90;99.90
14769;DHT22;7476;49.404;11.152;2023-05-20T06:02:38;16.60;99.90
14769;DHT22;7476;49.404;11.152;2023-05-20T06:05:05;17.00;99.90
14769;DHT22;7476;49.404;11.152;2023-05-20T06:07:32;17.10;99.90
14769;DHT22;7476;49.404;11.152;2023-05-20T06:09:59;18.10;99.90
14769;DHT22;7476;49.404;11.152;2023-05-20T06:12:25;18.30;99.90
14769;DHT22;7476;49.404;11.152;2023-05-20T06:14:53;17.80;99.90
14769;DHT22;7476;49.404;11.152;2023-05-20T06:17:20;17.60;99.90
14769;DHT22;7476;49.404;11.152;2023-05-20T06:19:46;17.20;99.90
14769;DHT22;7476;49.404;11.152;2023-05-20T06:22:13;17.40;99.90
14769;DHT22;7476;49.404;11.152;2023-05-20T06:24:40;17.50;99.90
14769;DHT22;7476;49.404;11.152;2023-05-20T06:27:06;17.70;99.90
14769;DHT22;7476;49.404;11.152;2023-05-20T06:29:33;17.90;99.90
14769;DHT22;7476;49.404;11.152;2023-05-20T06:32:01;18.20;99.90
14769;DHT22;7476;49.404;11.152;2023-05-20T06:34:27;17.70;99.90
14769;DHT22;7476;49.404;11.152;2023-05-20T06:36:54;17.60;99.90
14769;DHT22;7476;49.404;11.152;2023-05-20T06:39:22;18.00;99.90
14769;DHT22;7476;49.404;11.152;2023-05-20T06:41:48;18.00;99.90
14769;DHT22;7476;49.404;11.152;2023-05-20T06:44:17;18.60;99.90
14769;DHT22;7476;49.404;11.152;2023-05-20T06:46:44;18.20;99.90
14769;DHT22;7476;49.404;11.152;2023-05-20T06:49:12;18.20;99.90
14769;DHT22;7476;49.404;11.152;2023-05-20T06:51:38;18.20;99.90
14769;DHT22;7476;49.404;11.152;2023-05-20T06:54:05;18.30;99.90
14769;DHT22;7476;49.404;11.152;2023-05-20T06:56:32;18.50;99.90
14769;DHT22;7476;49.404;11.152;2023-05-20T06:58:58;18.50;99.90
14769;DHT22;7476;49.404;11.152;2023-05-20T07:01:25;18.80;99.90
14769;DHT22;7476;49.404;11.152;2023-05-20T07:03:52;19.20;99.90
14769;DHT22;7476;49.404;11.152;2023-05-20T07:06:19;19.60;99.90
14769;DHT22;7476;49.404;11.152;2023-05-20T07:08:46;18.90;99.90
14769;DHT22;7476;49.404;11.152;2023-05-20T07:11:13;18.70;99.90
14769;DHT22;7476;49.404;11.152;2023-05-20T07:13:39;18.90;99.90
14769;DHT22;7476;49.404;11.152;2023-05-20T07:16:06;19.30;99.90
14769;DHT22;7476;49.404;11.152;2023-05-20T07:18:33;19.90;99.90
14769;DHT22;7476;49.404;11.152;2023-05-20T07:20:59;19.60;99.90
14769;DHT22;7476;49.404;11.152;2023-05-20T07:23:27;19.80;99.90
14769;DHT22;7476;49.404;11.152;2023-05-20T07:25:54;19.70;99.90
14769;DHT22;7476;49.404;11.152;2023-05-20T07:28:21;20.30;99.90
14769;DHT22;7476;49.404;11.152;2023-05-20T07:30:48;21.00;99.90
14769;DHT22;7476;49.404;11.152;2023-05-20T07:33:15;20.90;99.90
14769;DHT22;7476;49.404;11.152;2023-05-20T07:35:42;20.70;99.90
14769;DHT22;7476;49.404;11.152;2023-05-20T07:38:10;20.70;99.90
14769;DHT22;7476;49.404;11.152;2023-05-20T07:40:38;20.60;99.90
14769;DHT22;7476;49.404;11.152;2023-05-20T07:43:05;20.20;99.90
14769;DHT22;7476;49.404;11.152;2023-05-20T07:45:33;20.00;99.90
14769;DHT22;7476;49.404;11.152;2023-05-20T07:47:59;20.40;99.90
14769;DHT22;7476;49.404;11.152;2023-05-20T07:50:26;20.30;99.90
14769;DHT22;7476;49.404;11.152;2023-05-20T07:52:53;20.60;99.90
14769;DHT22;7476;49.404;11.152;2023-05-20T07:55:20;20.80;99.90
14769;DHT22;7476;49.404;11.152;2023-05-20T07:57:47;20.30;99.90
14769;DHT22;7476;49.404;11.152;2023-05-20T08:00:15;20.30;99.90
14769;DHT22;7476;49.404;11.152;2023-05-20T08:02:41;20.80;99.90
14769;DHT22;7476;49.404;11.152;2023-05-20T08:05:08;21.50;99.90
14769;DHT22;7476;49.404;11.152;2023-05-20T08:07:35;21.30;99.90
14769;DHT22;7476;49.404;11.152;2023-05-20T08:10:02;21.90;99.90
14769;DHT22;7476;49.404;11.152;2023-05-20T08:12:28;22.80;99.90
14769;DHT22;7476;49.404;11.152;2023-05-20T08:14:56;21.70;99.90
14769;DHT22;7476;49.404;11.152;2023-05-20T08:17:23;21.10;99.90
14769;DHT22;7476;49.404;11.152;2023-05-20T08:19:50;21.50;99.90
14769;DHT22;7476;49.404;11.152;2023-05-20T08:22:17;22.30;99.90
14769;DHT22;7476;49.404;11.152;2023-05-20T08:24:43;22.80;99.90
14769;DHT22;7476;49.404;11.152;2023-05-20T08:27:10;22.80;99.90
14769;DHT22;7476;49.404;11.152;2023-05-20T08:29:37;22.80;99.90
14769;DHT22;7476;49.404;11.152;2023-05-20T08:32:05;21.70;99.90
14769;DHT22;7476;49.404;11.152;2023-05-20T08:34:32;21.60;99.90
14769;DHT22;7476;49.404;11.152;2023-05-20T08:36:58;21.90;99.90
14769;DHT22;7476;49.404;11.152;2023-05-20T08:39:25;21.40;99.90
14769;DHT22;7476;49.404;11.152;2023-05-20T08:41:52;22.10;99.90
14769;DHT22;7476;49.404;11.152;2023-05-20T08:44:20;22.10;99.90
14769;DHT22;7476;49.404;11.152;2023-05-20T08:46:47;22.60;99.90
14769;DHT22;7476;49.404;11.152;2023-05-20T08:49:16;22.40;99.90
14769;DHT22;7476;49.404;11.152;2023-05-20T08:51:43;22.40;99.90
14769;DHT22;7476;49.404;11.152;2023-05-20T08:54:11;22.70;99.90
14769;DHT22;7476;49.404;11.152;2023-05-20T08:56:39;23.20;99.90
14769;DHT22;7476;49.404;11.152;2023-05-20T08:59:07;23.40;99.90
14769;DHT22;7476;49.404;11.152;2023-05-20T09:01:40;22.90;99.90
14769;DHT22;7476;49.404;11.152;2023-05-20T09:04:08;22.80;99.90
14769;DHT22;7476;49.404;11.152;2023-05-20T09:06:43;23.60;99.90
14769;DHT22;7476;49.404;11.152;2023-05-20T09:09:10;23.50;99.90
14769;DHT22;7476;49.404;11.152;2023-05-20T09:11:38;24.10;99.90
14769;DHT22;7476;49.404;11.152;2023-05-20T09:14:05;25.10;99.90
14769;DHT22;7476;49.404;11.152;2023-05-20T09:16:32;25.70;99.90
14769;DHT22;7476;49.404;11.152;2023-05-20T09:18:58;25.80;99.90
14769;DHT22;7476;49.404;11.152;2023-05-20T09:21:26;24.80;99.90
14769;DHT22;7476;49.404;11.152;2023-05-20T09:23:54;23.80;99.90
14769;DHT22;7476;49.404;11.152;2023-05-20T09:26:21;24.60;99.90
14769;DHT22;7476;49.404;11.152;2023-05-20T09:28:49;24.40;99.90
14769;DHT22;7476;49.404;11.152;2023-05-20T09:31:16;24.20;99.90
14769;DHT22;7476;49.404;11.152;2023-05-20T09:33:43;24.50;99.90
14769;DHT22;7476;49.404;11.152;2023-05-20T09:36:10;24.40;99.90
14769;DHT22;7476;49.404;11.152;2023-05-20T09:38:38;23.90;99.90
14769;DHT22;7476;49.404;11.152;2023-05-20T09:41:10;24.10;99.90
14769;DHT22;7476;49.404;11.152;2023-05-20T09:43:38;23.80;99.90
14769;DHT22;7476;49.404;11.152;2023-05-20T09:46:06;24.30;99.90
14769;DHT22;7476;49.404;11.152;2023-05-20T09:48:35;24.00;99.90
14769;DHT22;7476;49.404;11.152;2023-05-20T09:51:03;24.20;99.90
14769;DHT22;7476;49.404;11.152;2023-05-20T09:53:30;23.80;99.90
14769;DHT22;7476;49.404;11.152;2023-05-20T09:55:57;23.10;99.90
14769;DHT22;7476;49.404;11.152;2023-05-20T09:58:28;22.90;99.90
14769;DHT22;7476;49.404;11.152;2023-05-20T10:00:55;23.00;99.90
14769;DHT22;7476;49.404;11.152;2023-05-20T10:03:22;23.60;99.90
14769;DHT22;7476;49.404;11.152;2023-05-20T10:06:01;24.20;99.90
14769;DHT22;7476;49.404;11.152;2023-05-20T10:08:44;24.00;99.90
14769;DHT22;7476;49.404;11.152;2023-05-20T10:11:23;25.10;99.90
14769;DHT22;7476;49.404;11.152;2023-05-20T10:14:11;26.10;99.90
14769;DHT22;7476;49.404;11.152;2023-05-20T10:16:45;26.80;99.90
14769;DHT22;7476;49.404;11.152;2023-05-20T10:19:26;25.00;99.90
14769;DHT22;7476;49.404;11.152;2023-05-20T10:21:59;25.00;99.90
14769;DHT22;7476;49.404;11.152;2023-05-20T10:24:30;24.80;99.90
14769;DHT22;7476;49.404;11.152;2023-05-20T10:26:59;24.20;99.90
14769;DHT22;7476;49.404;11.152;2023-05-20T10:29:28;23.90;99.90
14769;DHT22;7476;49.404;11.152;2023-05-20T10:31:55;24.90;99.90
14769;DHT22;7476;49.404;11.152;2023-05-20T10:34:22;25.70;99.90
14769;DHT22;7476;49.404;11.152;2023-05-20T10:36:58;26.00;99.90
14769;DHT22;7476;49.404;11.152;2023-05-20T10:39:27;24.40;99.90
14769;DHT22;7476;49.404;11.152;2023-05-20T10:42:04;23.50;99.90
14769;DHT22;7476;49.404;11.152;2023-05-20T10:44:41;23.20;99.90
14769;DHT22;7476;49.404;11.152;2023-05-20T10:47:08;23.20;99.90
14769;DHT22;7476;49.404;11.152;2023-05-20T10:49:38;23.10;99.90
14769;DHT22;7476;49.404;11.152;2023-05-20T10:52:06;23.30;99.90
14769;DHT22;7476;49.404;11.152;2023-05-20T10:54:34;24.70;99.90
14769;DHT22;7476;49.404;11.152;2023-05-20T10:57:05;24.90;99.90
14769;DHT22;7476;49.404;11.152;2023-05-20T10:59:32;25.80;99.90
14769;DHT22;7476;49.404;11.152;2023-05-20T11:02:01;25.90;99.90
14769;DHT22;7476;49.404;11.152;2023-05-20T11:04:28;25.70;99.90
14769;DHT22;7476;49.404;11.152;2023-05-20T11:06:56;25.30;99.90
14769;DHT22;7476;49.404;11.152;2023-05-20T11:09:23;24.90;99.90
14769;DHT22;7476;49.404;11.152;2023-05-20T11:11:50;25.60;99.90
14769;DHT22;7476;49.404;11.152;2023-05-20T11:14:17;26.50;99.90
14769;DHT22;7476;49.404;11.152;2023-05-20T11:16:44;25.40;99.90
14769;DHT22;7476;49.404;11.152;2023-05-20T11:19:15;25.60;99.90
14769;DHT22;7476;49.404;11.152;2023-05-20T11:21:43;26.00;99.90
14769;DHT22;7476;49.404;11.152;2023-05-20T11:24:10;26.00;99.90
14769;DHT22;7476;49.404;11.152;2023-05-20T11:26:37;25.50;99.90
14769;DHT22;7476;49.404;11.152;2023-05-20T11:29:04;26.30;99.90
14769;DHT22;7476;49.404;11.152;2023-05-20T11:31:31;26.60;99.90
14769;DHT22;7476;49.404;11.152;2023-05-20T11:33:58;26.50;99.90
14769;DHT22;7476;49.404;11.152;2023-05-20T11:36:28;26.40;99.90
14769;DHT22;7476;49.404;11.152;2023-05-20T11:38:56;26.50;99.90
14769;DHT22;7476;49.404;11.152;2023-05-20T11:41:23;25.90;99.90
14769;DHT22;7476;49.404;11.152;2023-05-20T11:43:55;26.10;99.90
14769;DHT22;7476;49.404;11.152;2023-05-20T11:46:22;26.80;99.90
14769;DHT22;7476;49.404;11.152;2023-05-20T11:48:52;27.20;99.90
14769;DHT22;7476;49.404;11.152;2023-05-20T11:51:22;26.50;99.90
14769;DHT22;7476;49.404;11.152;2023-05-20T11:53:51;27.10;99.90
14769;DHT22;7476;49.404;11.152;2023-05-20T11:56:18;27.60;99.90
14769;DHT22;7476;49.404;11.152;2023-05-20T11:58:45;27.50;99.90
14769;DHT22;7476;49.404;11.152;2023-05-20T12:01:12;26.30;99.90
14769;DHT22;7476;49.404;11.152;2023-05-20T12:03:39;26.10;99.90
14769;DHT22;7476;49.404;11.152;2023-05-20T12:06:06;26.10;99.90
14769;DHT22;7476;49.404;11.152;2023-05-20T12:08:32;26.00;99.90
14769;DHT22;7476;49.404;11.152;2023-05-20T12:11:00;25.40;99.90
14769;DHT22;7476;49.404;11.152;2023-05-20T12:13:27;25.30;99.90
14769;DHT22;7476;49.404;11.152;2023-05-20T12:15:54;26.10;99.90
14769;DHT22;7476;49.404;11.152;2023-05-20T12:18:21;26.80;99.90
14769;DHT22;7476;49.404;11.152;2023-05-20T12:20:48;25.20;99.90
14769;DHT22;7476;49.404;11.152;2023-05-20T12:23:14;25.40;99.90
14769;DHT22;7476;49.404;11.152;2023-05-20T12:25:41;25.40;99.90
14769;DHT22;7476;49.404;11.152;2023-05-20T12:28:11;25.10;99.90
14769;DHT22;7476;49.404;11.152;2023-05-20T12:30:37;24.80;99.90
14769;DHT22;7476;49.404;11.152;2023-05-20T12:33:04;24.50;99.90
14769;DHT22;7476;49.404;11.152;2023-05-20T12:35:37;25.00;99.90
14769;DHT22;7476;49.404;11.152;2023-05-20T12:38:04;24.50;99.90
14769;DHT22;7476;49.404;11.152;2023-05-20T12:40:31;24.20;99.90
14769;DHT22;7476;49.404;11.152;2023-05-20T12:42:59;24.00;99.90
14769;DHT22;7476;49.404;11.152;2023-05-20T12:45:27;24.50;99.90
14769;DHT22;7476;49.404;11.152;2023-05-20T12:47:54;24.40;99.90
14769;DHT22;7476;49.404;11.152;2023-05-20T12:50:21;24.10;99.90
14769;DHT22;7476;49.404;11.152;2023-05-20T12:52:47;23.80;99.90
14769;DHT22;7476;49.404;11.152;2023-05-20T12:55:14;23.60;99.90
14769;DHT22;7476;49.404;11.152;2023-05-20T12:57:42;23.70;99.90
14769;DHT22;7476;49.404;11.152;2023-05-20T13:00:10;23.30;99.90
14769;DHT22;7476;49.404;11.152;2023-05-20T13:02:39;23.60;99.90
14769;DHT22;7476;49.404;11.152;2023-05-20T13:05:08;24.70;99.90
14769;DHT22;7476;49.404;11.152;2023-05-20T13:07:35;24.70;99.90
14769;DHT22;7476;49.404;11.152;2023-05-20T13:10:01;25.20;99.90
14769;DHT22;7476;49.404;11.152;2023-05-20T13:12:28;26.70;99.90
14769;DHT22;7476;49.404;11.152;2023-05-20T13:14:55;27.60;99.90
14769;DHT22;7476;49.404;11.152;2023-05-20T13:17:22;28.70;99.90
14769;DHT22;7476;49.404;11.152;2023-05-20T13:19:50;28.90;99.90
14769;DHT22;7476;49.404;11.152;2023-05-20T13:22:16;28.00;99.90
14769;DHT22;7476;49.404;11.152;2023-05-20T13:24:43;27.10;99.90
14769;DHT22;7476;49.404;11.152;2023-05-20T13:27:10;26.50;99.90
14769;DHT22;7476;49.404;11.152;2023-05-20T13:29:37;26.20;99.90
14769;DHT22;7476;49.404;11.152;2023-05-20T13:32:04;25.30;99.90
14769;DHT22;7476;49.404;11.152;2023-05-20T13:34:31;25.80;99.90
14769;DHT22;7476;49.404;11.152;2023-05-20T13:36:59;26.60;99.90
14769;DHT22;7476;49.404;11.152;2023-05-20T13:39:25;26.70;99.90
14769;DHT22;7476;49.404;11.152;2023-05-20T13:41:52;25.80;99.90
14769;DHT22;7476;49.404;11.152;2023-05-20T13:44:19;25.80;99.90
14769;DHT22;7476;49.404;11.152;2023-05-20T13:46:46;26.00;99.90
14769;DHT22;7476;49.404;11.152;2023-05-20T13:49:12;26.00;99.90
14769;DHT22;7476;49.404;11.152;2023-05-20T13:51:39;26.10;99.90
14769;DHT22;7476;49.404;11.152;2023-05-20T13:54:07;25.40;99.90
14769;DHT22;7476;49.404;11.152;2023-05-20T13:56:33;24.70;99.90
14769;DHT22;7476;49.404;11.152;2023-05-20T13:59:00;24.70;99.90
14769;DHT22;7476;49.404;11.152;2023-05-20T14:01:28;24.40;99.90
14769;DHT22;7476;49.404;11.152;2023-05-20T14:03:57;24.90;99.90
14769;DHT22;7476;49.404;11.152;2023-05-20T14:06:24;24.90;99.90
14769;DHT22;7476;49.404;11.152;2023-05-20T14:08:53;25.20;99.90
14769;DHT22;7476;49.404;11.152;2023-05-20T14:11:21;25.30;99.90
14769;DHT22;7476;49.404;11.152;2023-05-20T14:13:48;25.40;99.90
14769;DHT22;7476;49.404;11.152;2023-05-20T14:16:15;25.30;99.90
14769;DHT22;7476;49.404;11.152;2023-05-20T14:18:42;25.80;99.90
14769;DHT22;7476;49.404;11.152;2023-05-20T14:21:10;25.70;99.90
14769;DHT22;7476;49.404;11.152;2023-05-20T14:23:38;26.20;99.90
14769;DHT22;7476;49.404;11.152;2023-05-20T14:26:08;26.20;99.90
14769;DHT22;7476;49.404;11.152;2023-05-20T14:28:37;25.60;99.90
14769;DHT22;7476;49.404;11.152;2023-05-20T14:31:05;25.70;99.90
14769;DHT22;7476;49.404;11.152;2023-05-20T14:33:31;25.50;99.90
14769;DHT22;7476;49.404;11.152;2023-05-20T14:35:59;25.20;99.90
14769;DHT22;7476;49.404;11.152;2023-05-20T14:38:27;25.50;99.90
14769;DHT22;7476;49.404;11.152;2023-05-20T14:40:54;25.80;99.90
14769;DHT22;7476;49.404;11.152;2023-05-20T14:43:20;25.60;99.90
14769;DHT22;7476;49.404;11.152;2023-05-20T14:45:49;25.60;99.90
14769;DHT22;7476;49.404;11.152;2023-05-20T14:48:15;26.40;99.90
14769;DHT22;7476;49.404;11.152;2023-05-20T14:50:42;26.50;99.90
14769;DHT22;7476;49.404;11.152;2023-05-20T14:53:09;27.40;99.90
14769;DHT22;7476;49.404;11.152;2023-05-20T14:55:36;26.80;99.90
14769;DHT22;7476;49.404;11.152;2023-05-20T14:58:03;27.70;99.90
14769;DHT22;7476;49.404;11.152;2023-05-20T15:00:30;27.20;99.90
14769;DHT22;7476;49.404;11.152;2023-05-20T15:02:59;26.80;99.90
14769;DHT22;7476;49.404;11.152;2023-05-20T15:05:26;27.70;99.90
14769;DHT22;7476;49.404;11.152;2023-05-20T15:07:53;27.70;99.90
14769;DHT22;7476;49.404;11.152;2023-05-20T15:10:20;27.00;99.90
14769;DHT22;7476;49.404;11.152;2023-05-20T15:12:46;26.80;99.90
14769;DHT22;7476;49.404;11.152;2023-05-20T15:15:13;27.50;99.90
14769;DHT22;7476;49.404;11.152;2023-05-20T15:17:40;28.20;99.50
14769;DHT22;7476;49.404;11.152;2023-05-20T15:20:12;28.70;99.50
14769;DHT22;7476;49.404;11.152;2023-05-20T15:22:38;30.00;97.90
14769;DHT22;7476;49.404;11.152;2023-05-20T15:25:06;29.20;98.50
14769;DHT22;7476;49.404;11.152;2023-05-20T15:27:33;29.60;97.90
14769;DHT22;7476;49.404;11.152;2023-05-20T15:30:00;29.40;97.70
14769;DHT22;7476;49.404;11.152;2023-05-20T15:32:27;29.00;98.30